Time;durP1;ratioP1;P1;durP2;ratioP2;P2;SDS_P1;SDS_P2;PMS_P1;PMS_P2;Temp;Humidity;BMP_temperature;BMP_pressure;BME280_temperature;BME280_humidity;BME280_pressure;Samples;Min_cycle;Max_cycle;Signal;HPM_P1;HPM_P2
2021/05/11 00:01:55;;;;;;;3.50;3.30;;;16.60;94.30;;;;;;4916109;29;20441;-77
2021/05/11 00:04:23;;;;;;;3.87;3.47;;;16.50;94.40;;;;;;4916198;29;20449;-77
2021/05/11 00:06:50;;;;;;;4.50;4.10;;;16.50;94.50;;;;;;4916755;29;20493;-77
2021/05/11 00:09:19;;;;;;;4.67;3.90;;;16.60;95.70;;;;;;4936076;29;20216;-77
2021/05/11 00:11:46;;;;;;;3.93;3.63;;;16.60;95.50;;;;;;4936407;29;20535;-77
2021/05/11 00:14:14;;;;;;;4.33;3.70;;;16.50;95.50;;;;;;4936227;29;20555;-77
2021/05/11 00:16:41;;;;;;;4.20;3.80;;;16.50;95.60;;;;;;4936115;29;20530;-77
2021/05/11 00:19:11;;;;;;;3.03;2.77;;;16.40;95.60;;;;;;4934759;29;20957;-77
2021/05/11 00:21:39;;;;;;;3.43;2.90;;;16.40;95.70;;;;;;4934806;29;20500;-77
2021/05/11 00:24:07;;;;;;;3.57;3.27;;;16.40;95.80;;;;;;4935941;29;20864;-77
2021/05/11 00:26:37;;;;;;;3.10;2.90;;;16.40;95.90;;;;;;4936030;29;21036;-77
2021/05/11 00:29:05;;;;;;;3.30;3.00;;;16.30;96.00;;;;;;4935109;29;20912;-77
2021/05/11 00:31:32;;;;;;;3.50;3.10;;;16.30;96.10;;;;;;4936034;29;20503;-77
2021/05/11 00:33:59;;;;;;;3.30;3.00;;;16.30;96.20;;;;;;4935874;29;20535;-77
2021/05/11 00:36:26;;;;;;;2.87;2.53;;;16.20;96.30;;;;;;4936267;29;21005;-77
2021/05/11 00:38:54;;;;;;;3.57;2.90;;;16.20;96.40;;;;;;4935871;29;20547;-77
2021/05/11 00:41:21;;;;;;;3.47;3.17;;;16.20;96.50;;;;;;4934654;29;20458;-77
2021/05/11 00:43:48;;;;;;;3.83;3.53;;;16.20;96.70;;;;;;4934574;29;20454;-77
2021/05/11 00:46:16;;;;;;;3.47;3.17;;;16.10;96.80;;;;;;4935843;29;20478;-77
2021/05/11 00:48:43;;;;;;;4.13;3.13;;;16.10;96.90;;;;;;4936010;29;20455;-77
2021/05/11 00:51:11;;;;;;;3.27;3.00;;;16.10;97.10;;;;;;4935881;29;20444;-77
2021/05/11 00:53:40;;;;;;;3.60;3.30;;;16.00;97.10;;;;;;4936102;29;20490;-77
2021/05/11 00:56:11;;;;;;;3.78;3.38;;;16.00;97.30;;;;;;4934771;29;20527;-77
2021/05/11 00:58:39;;;;;;;3.23;2.93;;;16.10;98.30;;;;;;4936144;29;20236;-77
2021/05/11 01:01:06;;;;;;;3.30;2.97;;;16.10;98.20;;;;;;4935983;29;20444;-77
2021/05/11 01:03:33;;;;;;;3.63;3.27;;;16.00;98.20;;;;;;4935757;29;20534;-77
2021/05/11 01:06:00;;;;;;;3.15;2.85;;;16.00;98.30;;;;;;4933878;29;21012;-77
2021/05/11 01:08:27;;;;;;;3.33;3.03;;;16.00;98.80;;;;;;4937667;29;20279;-77
2021/05/11 01:10:55;;;;;;;3.00;2.80;;;16.00;98.80;;;;;;4939303;29;20501;-77
2021/05/11 01:13:22;;;;;;;2.93;2.73;;;15.90;98.90;;;;;;4939239;29;20440;-77
2021/05/11 01:15:51;;;;;;;3.30;3.00;;;15.90;98.90;;;;;;4939210;29;20457;-77
2021/05/11 01:18:27;;;;;;;3.73;3.37;;;15.90;99.10;;;;;;4939237;29;20482;-77
2021/05/11 01:20:57;;;;;;;3.23;2.93;;;15.80;99.10;;;;;;4939277;29;20809;-77
2021/05/11 01:23:56;;;;;;;3.23;2.60;;;15.80;99.20;;;;;;4939065;29;20432;-77
2021/05/11 01:26:26;;;;;;;4.00;2.70;;;15.80;99.30;;;;;;4938053;29;20458;-77
2021/05/11 01:29:02;;;;;;;3.03;2.67;;;15.80;99.40;;;;;;4939189;29;20485;-77
2021/05/11 01:46:00;;;;;;;4.13;3.03;;;15.60;99.90;;;;;;4937484;29;20475;-77
2021/05/11 01:48:36;;;;;;;3.37;2.93;;;15.60;99.90;;;;;;4938511;29;20443;-77
2021/05/11 01:51:16;;;;;;;3.53;3.07;;;15.60;99.90;;;;;;4939130;29;20463;-77
2021/05/11 01:54:13;;;;;;;3.20;2.90;;;15.60;99.90;;;;;;4937374;29;20497;-77
2021/05/11 02:11:13;;;;;;;3.00;2.70;;;15.50;99.90;;;;;;4938436;29;20220;-77
2021/05/11 02:24:41;;;;;;;2.60;2.40;;;15.40;99.90;;;;;;4938096;29;20424;-77
2021/05/11 02:27:09;;;;;;;2.37;2.20;;;15.40;99.90;;;;;;4938050;29;20410;-77
2021/05/11 02:29:36;;;;;;;3.63;3.33;;;15.40;99.90;;;;;;4937946;29;20531;-77
2021/05/11 02:32:04;;;;;;;2.93;2.73;;;15.40;99.90;;;;;;4936799;29;20452;-77
2021/05/11 02:34:32;;;;;;;3.57;2.73;;;15.30;99.90;;;;;;4936392;29;20541;-77
2021/05/11 02:36:59;;;;;;;2.90;2.60;;;15.30;99.90;;;;;;4937767;29;20429;-77
2021/05/11 02:39:26;;;;;;;2.53;2.10;;;15.30;99.90;;;;;;4929270;29;20566;-77
2021/05/11 02:41:53;;;;;;;3.90;2.20;;;15.30;99.90;;;;;;4918640;29;20416;-77
2021/05/11 02:44:21;;;;;;;2.10;1.90;;;15.30;99.90;;;;;;4917330;29;21013;-77
2021/05/11 02:46:49;;;;;;;4.00;2.67;;;15.30;99.90;;;;;;4917356;29;20460;-77
2021/05/11 02:49:19;;;;;;;3.30;2.20;;;15.30;99.90;;;;;;4918489;29;20469;-77
2021/05/11 02:51:46;;;;;;;3.77;2.23;;;15.20;99.90;;;;;;4917702;29;20453;-77
2021/05/11 02:54:13;;;;;;;2.40;2.20;;;15.20;99.90;;;;;;4917148;29;20434;-77
2021/05/11 02:56:40;;;;;;;3.23;2.90;;;15.20;99.90;;;;;;4918379;29;20506;-77
2021/05/11 02:59:07;;;;;;;3.33;2.90;;;15.10;99.90;;;;;;4918296;29;20438;-77
2021/05/11 03:01:35;;;;;;;5.82;4.30;;;15.10;99.90;;;;;;4917321;29;20450;-77
2021/05/11 03:04:03;;;;;;;3.40;3.10;;;15.10;99.90;;;;;;4936150;29;20255;-77
2021/05/11 03:06:30;;;;;;;2.97;2.70;;;15.10;99.90;;;;;;4937112;29;20437;-77
2021/05/11 03:08:57;;;;;;;7.87;3.70;;;15.10;99.90;;;;;;4937065;29;20440;-78
2021/05/11 03:11:25;;;;;;;2.60;2.40;;;15.10;99.90;;;;;;4936051;29;20465;-78
2021/05/11 03:13:52;;;;;;;4.50;3.23;;;15.00;99.90;;;;;;4937052;29;20411;-78
2021/05/11 03:16:19;;;;;;;2.50;2.30;;;15.00;99.90;;;;;;4935765;29;21023;-78
2021/05/11 03:18:46;;;;;;;4.03;2.23;;;15.00;99.90;;;;;;4936855;29;20886;-78
2021/05/11 03:21:14;;;;;;;3.40;2.80;;;15.00;99.90;;;;;;4935678;29;20444;-78
2021/05/11 03:23:41;;;;;;;3.03;2.50;;;14.90;99.90;;;;;;4936821;29;20422;-78
2021/05/11 03:26:09;;;;;;;5.23;2.87;;;14.90;99.90;;;;;;4937140;29;20417;-78
2021/05/11 03:28:36;;;;;;;8.70;7.27;;;14.90;99.90;;;;;;4935724;29;20466;-78
2021/05/11 03:31:03;;;;;;;3.53;2.97;;;14.90;99.90;;;;;;4936572;29;20434;-78
2021/05/11 03:33:30;;;;;;;4.00;3.30;;;14.80;99.90;;;;;;4935738;29;20419;-78
2021/05/11 03:35:57;;;;;;;3.40;3.10;;;14.90;99.90;;;;;;4935572;29;20457;-77
2021/05/11 03:38:26;;;;;;;3.53;3.23;;;14.80;99.90;;;;;;4935845;29;20452;-77
2021/05/11 03:40:54;;;;;;;2.70;2.50;;;14.80;99.90;;;;;;4937450;29;20495;-77
2021/05/11 03:43:24;;;;;;;3.40;3.07;;;14.80;99.90;;;;;;4935738;29;20521;-77
2021/05/11 03:45:52;;;;;;;3.43;2.70;;;14.80;99.90;;;;;;4936298;29;20444;-77
2021/05/11 03:48:20;;;;;;;2.97;2.70;;;14.70;99.90;;;;;;4935403;29;20454;-77
2021/05/11 03:50:48;;;;;;;4.13;3.30;;;14.80;99.90;;;;;;4935127;29;21024;-77
2021/05/11 03:53:15;;;;;;;3.90;2.83;;;14.80;99.90;;;;;;4936436;29;20425;-77
2021/05/11 03:55:44;;;;;;;3.40;2.97;;;14.70;99.90;;;;;;4936640;29;20487;-77
2021/05/11 03:58:11;;;;;;;3.77;3.10;;;14.80;99.90;;;;;;4936390;29;20867;-77
2021/05/11 04:00:39;;;;;;;3.67;3.23;;;14.70;99.90;;;;;;4936245;29;20449;-77
2021/05/11 04:03:07;;;;;;;4.03;3.73;;;14.70;99.90;;;;;;4935210;29;20973;-77
2021/05/11 04:05:36;;;;;;;3.17;2.90;;;14.70;99.90;;;;;;4936215;29;20454;-77
2021/05/11 04:08:04;;;;;;;4.40;3.22;;;14.70;99.90;;;;;;4935180;29;20935;-78
2021/05/11 04:10:36;;;;;;;3.63;3.33;;;14.80;99.90;;;;;;4934882;29;20216;-78
2021/05/11 04:13:32;;;;;;;3.90;3.30;;;14.70;99.90;;;;;;4916208;29;20459;-78
2021/05/11 04:16:18;;;;;;;3.80;3.50;;;14.70;99.90;;;;;;4915817;29;20968;-78
2021/05/11 04:18:46;;;;;;;3.17;2.83;;;14.60;99.90;;;;;;4917060;29;20480;-78
2021/05/11 04:21:13;;;;;;;3.90;3.60;;;14.50;99.90;;;;;;4917097;29;20454;-78
2021/05/11 04:23:45;;;;;;;5.20;3.30;;;14.50;99.90;;;;;;4917452;29;20487;-78
2021/05/11 04:26:13;;;;;;;4.73;3.80;;;14.50;99.90;;;;;;4916107;29;20856;-78
2021/05/11 04:28:42;;;;;;;5.07;4.60;;;14.50;99.90;;;;;;4920158;29;20908;-78
2021/05/11 04:31:10;;;;;;;4.97;3.80;;;14.40;99.90;;;;;;4936259;29;20411;-78
2021/05/11 04:33:37;;;;;;;4.27;3.87;;;14.40;99.90;;;;;;4934739;29;20429;-78
2021/05/11 04:36:06;;;;;;;6.47;4.47;;;14.40;99.90;;;;;;4935977;29;20442;-78
2021/05/11 04:38:34;;;;;;;4.90;4.50;;;14.30;99.90;;;;;;4936246;29;20442;-78
2021/05/11 04:41:02;;;;;;;4.73;4.33;;;14.30;99.90;;;;;;4934549;29;20468;-78
2021/05/11 04:43:30;;;;;;;5.30;4.20;;;14.30;99.90;;;;;;4938154;29;20937;-78
2021/05/11 04:46:04;;;;;;;4.10;3.80;;;14.30;99.90;;;;;;4938657;29;20485;-78
2021/05/11 04:48:32;;;;;;;5.80;4.13;;;14.30;99.90;;;;;;4939841;29;20453;-78
2021/05/11 04:51:00;;;;;;;4.50;4.10;;;14.30;99.90;;;;;;4938489;29;20450;-78
2021/05/11 04:53:28;;;;;;;7.20;5.80;;;14.30;99.90;;;;;;4938492;29;20495;-78
2021/05/11 04:56:05;;;;;;;4.73;3.90;;;14.20;99.90;;;;;;4938406;29;20949;-78
2021/05/11 04:58:40;;;;;;;4.57;4.17;;;14.30;99.90;;;;;;4938455;29;20809;-78
2021/05/11 05:01:12;;;;;;;3.90;3.50;;;14.20;99.90;;;;;;4936543;29;20448;-78
2021/05/11 05:03:41;;;;;;;4.30;3.80;;;14.30;99.90;;;;;;4939996;29;20447;-77
2021/05/11 05:06:09;;;;;;;4.20;3.90;;;14.30;99.90;;;;;;4938288;29;20432;-77
2021/05/11 05:08:36;;;;;;;3.73;3.43;;;14.20;99.90;;;;;;4938265;29;20518;-77
2021/05/11 05:11:04;;;;;;;4.17;3.80;;;14.30;99.90;;;;;;4939478;29;20468;-78
2021/05/11 05:13:32;;;;;;;5.68;4.40;;;14.30;99.90;;;;;;4939292;29;20435;-78
2021/05/11 05:15:59;;;;;;;4.70;3.80;;;14.30;99.90;;;;;;4937945;29;20223;-78
2021/05/11 05:18:29;;;;;;;4.87;4.43;;;14.30;99.90;;;;;;4939155;29;20490;-78
2021/05/11 05:20:57;;;;;;;6.27;5.33;;;14.30;99.90;;;;;;4939186;29;20522;-78
2021/05/11 05:23:30;;;;;;;4.80;3.97;;;14.40;99.90;;;;;;4938064;29;20790;-77
2021/05/11 05:26:02;;;;;;;5.20;4.60;;;14.40;99.90;;;;;;4939459;29;20420;-77
2021/05/11 05:28:32;;;;;;;5.50;5.00;;;14.40;99.90;;;;;;4939579;29;20424;-77
2021/05/11 05:31:01;;;;;;;4.83;4.33;;;14.40;99.90;;;;;;4937630;29;20991;-77
2021/05/11 05:33:31;;;;;;;4.80;4.40;;;14.40;99.90;;;;;;4939183;29;20414;-77
2021/05/11 05:35:59;;;;;;;4.60;4.20;;;14.40;99.90;;;;;;4937603;29;20505;-77
2021/05/11 05:38:28;;;;;;;5.50;5.00;;;14.30;99.90;;;;;;4939260;29;20505;-77
2021/05/11 05:41:01;;;;;;;7.73;4.60;;;14.30;99.90;;;;;;4938817;29;20465;-77
2021/05/11 05:43:29;;;;;;;4.67;4.27;;;14.40;99.90;;;;;;4937989;29;20897;-77
2021/05/11 05:45:57;;;;;;;5.70;4.27;;;14.40;99.90;;;;;;4938909;29;20514;-77
2021/05/11 05:48:25;;;;;;;6.20;4.77;;;14.40;99.90;;;;;;4937497;29;20431;-77
2021/05/11 05:50:56;;;;;;;5.07;4.67;;;14.40;99.90;;;;;;4937355;29;20893;-77
2021/05/11 05:53:27;;;;;;;5.10;4.60;;;14.40;99.90;;;;;;4938428;29;20891;-77
2021/05/11 05:55:54;;;;;;;5.30;4.70;;;14.40;99.90;;;;;;4937266;29;20482;-77
2021/05/11 05:58:22;;;;;;;6.43;4.70;;;14.40;99.90;;;;;;4937195;29;20506;-77
2021/05/11 06:00:53;;;;;;;5.43;4.83;;;14.40;99.90;;;;;;4938363;29;20481;-77
2021/05/11 06:03:33;;;;;;;6.10;4.90;;;14.40;99.90;;;;;;4938406;29;20949;-77
2021/05/11 06:06:03;;;;;;;7.03;4.87;;;14.40;99.90;;;;;;4937240;29;20472;-77
2021/05/11 06:08:32;;;;;;;4.70;4.30;;;14.50;99.90;;;;;;4938280;29;20738;-77
2021/05/11 06:11:04;;;;;;;4.90;4.37;;;14.50;99.90;;;;;;4936883;29;20599;-77
2021/05/11 06:13:37;;;;;;;5.23;3.80;;;14.50;99.90;;;;;;4938207;29;20470;-77
2021/05/11 06:18:53;;;;;;;5.33;4.83;;;14.50;99.90;;;;;;4936733;29;20435;-77
2021/05/11 06:21:21;;;;;;;4.60;4.20;;;14.50;99.90;;;;;;4936800;29;20473;-77
2021/05/11 06:23:49;;;;;;;7.07;4.40;;;14.60;99.90;;;;;;4936794;29;20431;-77
2021/05/11 06:26:17;;;;;;;4.90;4.47;;;14.60;99.90;;;;;;4936817;29;20466;-77
2021/05/11 06:28:45;;;;;;;4.80;4.27;;;14.60;99.90;;;;;;4936658;29;20458;-77
2021/05/11 06:31:13;;;;;;;5.80;5.30;;;14.60;99.90;;;;;;4937734;29;20909;-77
2021/05/11 06:33:40;;;;;;;5.23;4.73;;;14.60;99.90;;;;;;4937802;29;20199;-77
2021/05/11 06:36:08;;;;;;;4.90;4.50;;;14.60;99.90;;;;;;4937728;29;20981;-77
2021/05/11 06:38:37;;;;;;;5.43;4.93;;;14.60;99.90;;;;;;4936640;29;20522;-77
2021/05/11 06:41:05;;;;;;;4.97;4.57;;;14.70;99.90;;;;;;4937734;29;20973;-77
2021/05/11 06:43:34;;;;;;;5.00;4.60;;;14.70;99.90;;;;;;4937900;29;20510;-77
2021/05/11 06:49:03;;;;;;;6.57;5.90;;;14.70;99.90;;;;;;4934370;29;20470;-77
2021/05/11 06:54:17;;;;;;;5.93;5.43;;;14.70;99.90;;;;;;4937779;29;20849;-77
2021/05/11 06:56:46;;;;;;;5.30;4.90;;;14.70;99.90;;;;;;4937377;29;20565;-77
2021/05/11 06:59:15;;;;;;;6.20;5.70;;;14.70;99.90;;;;;;4936038;29;20533;-77
2021/05/11 07:01:42;;;;;;;6.10;5.50;;;14.70;99.90;;;;;;4937367;29;20984;-77
2021/05/11 07:04:10;;;;;;;6.90;6.30;;;14.70;99.90;;;;;;4936009;29;20456;-77
2021/05/11 07:06:39;;;;;;;6.27;5.63;;;14.70;99.90;;;;;;4937088;29;20418;-77
2021/05/11 07:09:10;;;;;;;6.70;5.63;;;14.70;99.90;;;;;;4937099;29;20435;-77
2021/05/11 07:14:25;;;;;;;5.30;4.90;;;14.70;99.90;;;;;;4937681;29;20493;-77
2021/05/11 07:16:54;;;;;;;6.00;5.50;;;14.70;99.90;;;;;;4935494;29;20453;-77
2021/05/11 07:19:22;;;;;;;5.73;5.23;;;14.70;99.90;;;;;;4936910;29;20494;-77
2021/05/11 07:21:50;;;;;;;5.23;4.83;;;14.70;99.90;;;;;;4936911;29;20513;-77
2021/05/11 07:24:18;;;;;;;5.73;5.23;;;14.70;99.90;;;;;;4937196;29;20474;-77
2021/05/11 07:27:00;;;;;;;6.50;5.90;;;14.70;99.90;;;;;;4936839;29;20413;-77
2021/05/11 07:29:40;;;;;;;5.90;5.47;;;14.70;99.90;;;;;;4935703;29;20478;-77
2021/05/11 07:32:08;;;;;;;6.43;5.93;;;14.70;99.90;;;;;;4937315;29;20451;-77
2021/05/11 07:34:40;;;;;;;5.53;5.13;;;14.60;99.90;;;;;;4935779;29;20814;-77
2021/05/11 07:37:08;;;;;;;5.63;5.13;;;14.70;99.90;;;;;;4935437;29;20507;-77
2021/05/11 07:39:36;;;;;;;6.15;5.65;;;14.70;99.90;;;;;;4935091;29;20927;-77
2021/05/11 07:42:05;;;;;;;6.03;5.53;;;14.70;99.90;;;;;;4936581;29;20475;-77
2021/05/11 07:44:37;;;;;;;5.73;5.30;;;14.70;99.90;;;;;;4936519;29;20441;-77
2021/05/11 07:47:10;;;;;;;6.57;6.00;;;14.70;99.90;;;;;;4935633;29;20440;-77
2021/05/11 07:50:09;;;;;;;6.80;6.30;;;14.70;99.90;;;;;;4936727;29;20551;-77
2021/05/11 08:15:01;;;;;;;8.60;7.90;;;14.60;99.90;;;;;;4936341;29;20479;-77
2021/05/11 08:17:32;;;;;;;8.10;7.30;;;14.50;99.90;;;;;;4935947;29;20486;-78
2021/05/11 08:20:12;;;;;;;9.07;8.27;;;14.50;99.90;;;;;;4934749;29;20567;-78
2021/05/11 08:22:57;;;;;;;9.23;8.43;;;14.50;99.90;;;;;;4936140;29;20448;-78
2021/05/11 08:28:11;;;;;;;12.83;8.93;;;14.50;99.90;;;;;;4936019;29;20437;-78
2021/05/11 08:30:39;;;;;;;10.00;9.20;;;14.50;99.90;;;;;;4936732;29;20469;-78
2021/05/11 08:33:07;;;;;;;9.60;8.73;;;14.50;99.90;;;;;;4934907;29;20464;-78
2021/05/11 08:35:35;;;;;;;9.47;8.67;;;14.50;99.90;;;;;;4934689;29;20448;-78
2021/05/11 08:38:03;;;;;;;9.52;8.73;;;14.60;99.90;;;;;;4935533;29;20923;-78
2021/05/11 08:40:32;;;;;;;9.73;8.87;;;14.60;99.90;;;;;;4936617;29;20566;-78
2021/05/11 08:43:02;;;;;;;8.70;8.00;;;14.60;99.90;;;;;;4935889;29;20505;-78
2021/05/11 08:45:31;;;;;;;7.63;7.03;;;14.60;99.90;;;;;;4936065;29;20390;-78
2021/05/11 08:48:00;;;;;;;7.18;6.57;;;14.50;99.90;;;;;;4934445;29;20528;-78
2021/05/11 08:50:32;;;;;;;6.20;5.70;;;14.50;99.90;;;;;;4934503;29;20468;-78
2021/05/11 08:53:15;;;;;;;6.23;5.73;;;14.50;99.90;;;;;;4934564;29;20415;-78
2021/05/11 09:07:19;;;;;;;6.77;6.17;;;14.50;99.90;;;;;;4940185;29;20802;-79
2021/05/11 09:24:00;;;;;;;5.57;5.17;;;14.40;99.90;;;;;;4939725;29;20777;-78
2021/05/11 09:26:38;;;;;;;5.50;5.10;;;14.30;99.90;;;;;;4938654;29;20419;-78
2021/05/11 09:29:24;;;;;;;5.57;5.17;;;14.30;99.90;;;;;;4940115;29;20574;-78
2021/05/11 09:31:59;;;;;;;4.70;4.30;;;14.30;99.90;;;;;;4943894;29;20511;-78
2021/05/11 09:34:34;;;;;;;5.10;4.70;;;14.20;99.90;;;;;;4942960;29;20433;-78
2021/05/11 09:57:23;;;;;;;5.47;4.97;;;14.40;99.90;;;;;;4938624;29;20449;-76
2021/05/11 10:00:31;;;;;;;4.77;4.27;;;14.40;99.90;;;;;;4938559;29;20254;-76
2021/05/11 10:27:00;;;;;;;5.40;5.00;;;14.30;99.90;;;;;;4937057;29;20517;-76
2021/05/11 10:38:37;;;;;;;6.53;5.07;;;14.40;99.90;;;;;;4937889;29;20528;-76
2021/05/11 10:41:06;;;;;;;6.10;5.50;;;14.40;99.90;;;;;;4935103;29;20481;-76
2021/05/11 10:44:13;;;;;;;11.93;7.37;;;14.40;99.90;;;;;;4937850;29;20780;-76
2021/05/11 10:46:49;;;;;;;9.00;6.53;;;14.50;99.90;;;;;;4938112;29;20893;-78
2021/05/11 10:49:25;;;;;;;6.20;5.53;;;14.50;99.90;;;;;;4937817;29;20821;-77
2021/05/11 10:52:04;;;;;;;6.70;4.83;;;14.50;99.90;;;;;;4936184;29;20495;-78
2021/05/11 10:54:36;;;;;;;4.27;3.90;;;14.50;99.90;;;;;;4937669;29;20493;-78
2021/05/11 10:57:26;;;;;;;4.17;3.83;;;14.60;99.90;;;;;;4937622;29;20478;-78
2021/05/11 11:00:10;;;;;;;4.53;4.13;;;14.60;99.90;;;;;;4937461;29;20469;-77
2021/05/11 11:02:42;;;;;;;5.17;4.27;;;14.60;99.90;;;;;;4936055;29;20450;-77
2021/05/11 11:05:11;;;;;;;6.00;5.40;;;14.60;99.90;;;;;;4937266;29;20447;-77
2021/05/11 11:07:42;;;;;;;5.07;4.45;;;14.60;99.90;;;;;;4936848;29;20472;-77
2021/05/11 11:10:10;;;;;;;4.93;4.53;;;14.70;99.90;;;;;;4935864;29;20243;-77
2021/05/11 11:12:40;;;;;;;6.07;3.87;;;14.60;99.90;;;;;;4935760;29;20473;-77
2021/05/11 11:15:17;;;;;;;4.47;4.07;;;14.70;99.90;;;;;;4937176;29;20518;-77
2021/05/11 11:17:49;;;;;;;4.90;4.50;;;14.60;99.90;;;;;;4936812;29;20497;-77
2021/05/11 11:20:19;;;;;;;4.70;3.90;;;14.60;99.90;;;;;;4936966;29;20877;-77
2021/05/11 11:26:05;;;;;;;4.33;4.03;;;14.60;99.90;;;;;;4937284;29;20819;-77
2021/05/11 11:28:33;;;;;;;4.70;4.30;;;14.60;99.90;;;;;;4935730;29;20500;-77
2021/05/11 11:31:01;;;;;;;4.77;4.37;;;14.60;99.90;;;;;;4937165;29;20510;-77
2021/05/11 11:33:29;;;;;;;5.27;4.77;;;14.60;99.90;;;;;;4935506;29;20439;-77
2021/05/11 11:35:57;;;;;;;5.70;4.60;;;14.60;99.90;;;;;;4935572;29;20487;-77
2021/05/11 11:38:27;;;;;;;5.90;4.60;;;14.60;99.90;;;;;;4936651;29;20811;-77
2021/05/11 11:41:00;;;;;;;5.47;4.30;;;14.60;99.90;;;;;;4935638;29;20541;-77
2021/05/11 11:43:29;;;;;;;6.17;5.40;;;14.60;99.90;;;;;;4936732;29;20442;-77
2021/05/11 11:45:57;;;;;;;8.03;5.40;;;14.60;99.90;;;;;;4936187;29;20454;-77
2021/05/11 11:48:25;;;;;;;6.20;5.60;;;14.70;99.90;;;;;;4936886;29;20446;-77
2021/05/11 11:50:58;;;;;;;6.40;5.87;;;14.70;99.90;;;;;;4935815;29;20868;-77
2021/05/11 11:53:34;;;;;;;6.77;6.03;;;14.80;99.90;;;;;;4935070;29;20423;-77
2021/05/11 11:56:36;;;;;;;6.13;5.33;;;14.80;99.90;;;;;;4935270;29;20426;-77
2021/05/11 11:59:04;;;;;;;7.50;6.90;;;14.90;99.90;;;;;;4936335;29;20534;-77
2021/05/11 12:01:33;;;;;;;6.83;5.23;;;14.90;99.90;;;;;;4935106;29;20526;-77
2021/05/11 12:04:02;;;;;;;6.17;5.43;;;14.90;99.90;;;;;;4936637;29;20425;-77
2021/05/11 12:06:30;;;;;;;6.93;6.22;;;15.00;99.90;;;;;;4934281;29;20435;-77
2021/05/11 12:08:58;;;;;;;6.23;5.30;;;15.10;99.90;;;;;;4934946;29;20192;-77
2021/05/11 12:11:26;;;;;;;9.47;6.03;;;15.20;99.90;;;;;;4936300;29;20514;-77
2021/05/11 12:13:54;;;;;;;6.57;5.97;;;15.20;99.90;;;;;;4935144;29;20517;-77
2021/05/11 12:16:24;;;;;;;7.13;6.23;;;15.20;99.90;;;;;;4936485;29;20527;-77
2021/05/11 12:19:04;;;;;;;8.07;7.17;;;15.30;99.90;;;;;;4934920;29;20500;-77
2021/05/11 12:21:34;;;;;;;8.87;5.10;;;15.30;99.90;;;;;;4936692;29;20829;-77
2021/05/11 12:24:09;;;;;;;7.70;5.43;;;15.30;99.90;;;;;;4936581;29;20425;-77
2021/05/11 12:26:39;;;;;;;7.17;5.87;;;15.40;99.90;;;;;;4936600;29;20451;-77
2021/05/11 12:29:10;;;;;;;5.77;5.17;;;15.40;99.90;;;;;;4934664;29;20442;-77
2021/05/11 12:31:39;;;;;;;6.20;5.60;;;15.50;99.90;;;;;;4934726;29;20445;-77
2021/05/11 12:34:09;;;;;;;7.00;5.53;;;15.50;99.90;;;;;;4934761;29;20431;-77
2021/05/11 12:36:45;;;;;;;7.10;6.40;;;15.50;99.90;;;;;;4936195;29;20436;-77
2021/05/11 12:39:24;;;;;;;7.50;6.30;;;15.50;99.90;;;;;;4934564;29;20498;-77
2021/05/11 12:41:51;;;;;;;6.87;6.10;;;15.60;99.90;;;;;;4936168;29;20425;-77
2021/05/11 12:44:27;;;;;;;7.37;6.77;;;15.50;99.90;;;;;;4935889;29;21073;-77
2021/05/11 12:46:59;;;;;;;11.30;7.13;;;15.50;99.90;;;;;;4935862;29;20860;-77
2021/05/11 12:49:28;;;;;;;10.77;5.63;;;15.60;99.90;;;;;;4935790;29;20461;-77
2021/05/11 12:51:58;;;;;;;6.23;5.63;;;15.50;99.90;;;;;;4936036;29;20417;-77
2021/05/11 12:54:30;;;;;;;10.83;6.60;;;15.60;99.90;;;;;;4936177;29;20814;-77
2021/05/11 12:57:16;;;;;;;7.50;6.70;;;15.50;99.90;;;;;;4936341;29;20435;-77
2021/05/11 12:59:55;;;;;;;6.77;6.17;;;15.50;99.90;;;;;;4934433;29;20964;-77
2021/05/11 13:02:38;;;;;;;7.13;4.80;;;15.50;99.90;;;;;;4935737;29;20489;-77
2021/05/11 13:17:02;;;;;;;6.70;5.00;;;15.60;99.90;;;;;;4922862;29;20463;-77
2021/05/11 13:19:54;;;;;;;4.80;4.00;;;15.60;99.90;;;;;;4939109;29;20483;-77
2021/05/11 13:22:31;;;;;;;6.40;4.03;;;15.70;99.90;;;;;;4939208;29;20395;-77
2021/05/11 13:25:12;;;;;;;8.27;6.47;;;15.70;99.90;;;;;;4939043;29;20483;-77
2021/05/11 13:27:44;;;;;;;6.00;4.50;;;15.70;99.90;;;;;;4937907;29;20239;-77
2021/05/11 13:30:25;;;;;;;5.37;3.77;;;15.60;99.90;;;;;;4939169;29;20491;-77
2021/05/11 13:33:09;;;;;;;3.80;3.40;;;15.60;99.90;;;;;;4939067;29;20448;-77
2021/05/11 13:35:37;;;;;;;4.23;3.70;;;15.60;99.90;;;;;;4938042;29;20893;-77
2021/05/11 13:38:06;;;;;;;4.60;4.10;;;15.60;99.90;;;;;;4937602;29;20471;-77
2021/05/11 13:40:35;;;;;;;5.70;5.20;;;15.60;99.90;;;;;;4938861;29;20441;-77
2021/05/11 13:43:04;;;;;;;3.83;3.43;;;15.60;99.90;;;;;;4937889;29;20451;-77
2021/05/11 13:45:31;;;;;;;4.43;4.03;;;15.60;99.90;;;;;;4938788;29;20510;-77
2021/05/11 13:48:02;;;;;;;4.50;4.10;;;15.60;99.90;;;;;;4937534;29;20531;-77
2021/05/11 13:50:43;;;;;;;5.63;4.73;;;15.60;99.90;;;;;;4938609;29;20503;-77
2021/05/11 13:53:12;;;;;;;4.20;3.80;;;15.60;99.90;;;;;;4939062;29;20483;-77
2021/05/11 13:55:49;;;;;;;4.70;4.30;;;15.60;99.90;;;;;;4937480;29;20448;-77
2021/05/11 14:04:04;;;;;;;4.63;4.23;;;15.50;99.90;;;;;;4882929;29;20438;-77
2021/05/11 14:06:32;;;;;;;6.33;4.47;;;15.50;99.90;;;;;;4898837;29;20967;-77
2021/05/11 14:08:59;;;;;;;4.00;3.70;;;15.50;99.90;;;;;;4906144;29;20969;-77
2021/05/11 14:11:28;;;;;;;6.97;5.20;;;15.40;99.90;;;;;;4938348;29;20935;-78
2021/05/11 14:13:56;;;;;;;5.50;4.77;;;15.40;99.90;;;;;;4938360;29;20418;-78
2021/05/11 14:16:23;;;;;;;5.70;4.10;;;15.40;99.90;;;;;;4936701;29;20447;-78
2021/05/11 14:18:51;;;;;;;4.60;4.17;;;15.30;99.90;;;;;;4937992;29;20579;-77
2021/05/11 14:21:19;;;;;;;5.40;4.63;;;15.30;99.90;;;;;;4938407;29;20422;-77
2021/05/11 14:23:48;;;;;;;7.90;4.97;;;15.30;99.90;;;;;;4938123;29;20859;-77
2021/05/11 14:26:15;;;;;;;5.20;4.70;;;15.30;99.90;;;;;;4938162;29;20444;-77
2021/05/11 14:28:44;;;;;;;5.90;5.10;;;15.30;99.90;;;;;;4937937;29;20436;-77
2021/05/11 14:31:12;;;;;;;5.57;4.73;;;15.30;99.90;;;;;;4938016;29;20479;-77
2021/05/11 14:33:40;;;;;;;5.40;4.77;;;15.30;99.90;;;;;;4936820;29;20801;-77
2021/05/11 14:36:09;;;;;;;5.40;4.70;;;15.30;99.90;;;;;;4938403;29;20444;-77
2021/05/11 14:38:37;;;;;;;7.20;5.20;;;15.30;99.90;;;;;;4936635;29;20860;-77
2021/05/11 14:41:07;;;;;;;5.10;4.53;;;15.30;99.90;;;;;;4937811;29;20451;-77
2021/05/11 14:43:38;;;;;;;4.77;4.30;;;15.20;99.90;;;;;;4936750;29;20862;-77
2021/05/11 14:46:08;;;;;;;5.03;4.60;;;15.10;99.90;;;;;;4938073;29;20481;-77
2021/05/11 14:48:36;;;;;;;5.93;4.47;;;15.10;99.90;;;;;;4936729;29;20470;-77
2021/05/11 14:51:05;;;;;;;5.20;4.40;;;15.10;99.90;;;;;;4937720;29;20470;-77
2021/05/11 14:53:33;;;;;;;4.97;4.00;;;15.10;99.90;;;;;;4936717;29;20517;-77
2021/05/11 14:56:01;;;;;;;6.20;5.13;;;15.10;99.90;;;;;;4936238;29;20496;-77
2021/05/11 14:58:33;;;;;;;5.70;5.10;;;15.20;99.90;;;;;;4936007;29;20464;-78
2021/05/11 15:01:00;;;;;;;6.57;5.33;;;15.20;99.90;;;;;;4937354;29;21048;-78
2021/05/11 15:03:29;;;;;;;6.40;5.27;;;15.20;99.90;;;;;;4936184;29;20511;-77
2021/05/11 15:06:17;;;;;;;5.93;5.30;;;15.30;99.90;;;;;;4937374;29;20423;-77
2021/05/11 15:08:45;;;;;;;5.87;5.30;;;15.40;99.90;;;;;;4937409;29;20441;-77
2021/05/11 15:11:13;;;;;;;6.50;5.90;;;15.40;99.90;;;;;;4936972;29;20495;-77
2021/05/11 15:13:43;;;;;;;6.00;5.40;;;15.50;99.90;;;;;;4935912;29;20422;-77
2021/05/11 15:16:17;;;;;;;6.20;4.93;;;15.50;99.90;;;;;;4937058;29;20417;-77
2021/05/11 15:18:45;;;;;;;6.80;5.47;;;15.60;99.90;;;;;;4935669;29;20487;-77
2021/05/11 15:21:13;;;;;;;5.50;4.90;;;15.60;99.90;;;;;;4935734;29;20460;-77
2021/05/11 15:23:42;;;;;;;7.63;5.30;;;15.70;99.90;;;;;;4937260;29;20928;-77
2021/05/11 15:26:11;;;;;;;4.87;4.47;;;15.70;99.90;;;;;;4935157;29;20434;-77
2021/05/11 15:28:40;;;;;;;5.33;4.63;;;15.70;99.90;;;;;;4935672;29;20447;-77
2021/05/11 15:31:08;;;;;;;6.90;5.00;;;15.70;99.90;;;;;;4935801;29;20883;-77
2021/05/11 15:33:35;;;;;;;4.97;4.40;;;15.70;99.90;;;;;;4935592;29;20451;-77
2021/05/11 15:36:05;;;;;;;5.20;4.70;;;15.70;99.90;;;;;;4936945;29;20785;-77
2021/05/11 15:38:33;;;;;;;5.27;4.77;;;15.60;99.90;;;;;;4936764;29;20468;-77
2021/05/11 15:41:00;;;;;;;5.70;4.80;;;15.60;99.90;;;;;;4936292;29;20436;-78
2021/05/11 15:43:28;;;;;;;4.83;4.33;;;15.60;99.90;;;;;;4935493;29;20227;-78
2021/05/11 15:45:56;;;;;;;6.57;4.67;;;15.60;99.90;;;;;;4936694;29;20480;-77
2021/05/11 15:48:24;;;;;;;7.80;5.63;;;15.60;99.90;;;;;;4935372;29;20505;-77
2021/05/11 15:50:57;;;;;;;6.53;4.70;;;15.50;99.90;;;;;;4935343;29;20466;-77
2021/05/11 15:53:26;;;;;;;8.07;4.03;;;15.50;99.90;;;;;;4933216;29;20977;-77
2021/05/11 15:55:53;;;;;;;5.33;4.60;;;15.50;99.90;;;;;;4935619;29;20560;-77
2021/05/11 15:58:21;;;;;;;4.93;4.30;;;15.50;99.90;;;;;;4935133;29;20478;-77
2021/05/11 16:00:50;;;;;;;5.40;4.30;;;15.50;99.90;;;;;;4935253;29;20502;-77